createdAt,value
2022-11-18T00:04:47.522Z,6.20
2022-11-18T00:09:50.501Z,5.55
2022-11-18T00:14:54.567Z,6.13
2022-11-18T00:19:57.399Z,5.63
2022-11-18T00:25:00.127Z,5.60
2022-11-18T00:30:04.951Z,7.20
2022-11-18T00:35:08.577Z,6.55
2022-11-18T00:40:12.398Z,6.55
2022-11-18T00:45:16.630Z,7.38
2022-11-18T00:50:19.479Z,6.38
2022-11-18T00:55:22.261Z,7.13
2022-11-18T01:00:26.361Z,8.52
2022-11-18T01:05:29.362Z,7.68
2022-11-18T01:10:32.245Z,7.70
2022-11-18T01:15:40.870Z,7.28
2022-11-18T01:20:44.417Z,7.50
2022-11-18T01:25:49.931Z,7.53
2022-11-18T01:30:54.070Z,9.18
2022-11-18T01:35:56.837Z,8.18
2022-11-18T01:40:59.628Z,8.40
2022-11-18T01:46:03.873Z,7.97
2022-11-18T01:51:10.605Z,9.25
2022-11-18T01:56:17.440Z,6.80
2022-11-18T02:01:21.650Z,7.97
2022-11-18T02:06:24.464Z,7.57
2022-11-18T02:11:44.680Z,8.25
2022-11-18T02:17:03.586Z,8.43
2022-11-18T02:22:20.642Z,8.60
2022-11-18T02:32:54.468Z,7.10
2022-11-18T02:38:01.428Z,8.63
2022-11-18T02:43:09.201Z,7.50
2022-11-18T02:48:15.493Z,8.32
2022-11-18T02:53:21.428Z,8.10
2022-11-18T02:58:26.840Z,7.18
2022-11-18T03:03:32.885Z,7.80
2022-11-18T03:08:40.343Z,8.63
2022-11-18T03:13:57.037Z,8.02
2022-11-18T03:19:08.686Z,7.13
2022-11-18T03:24:17.813Z,8.32
2022-11-18T03:29:25.537Z,7.75
2022-11-18T03:34:33.360Z,8.13
2022-11-18T03:39:41.048Z,10.98
2022-11-18T03:44:52.522Z,8.07
2022-11-18T03:50:01.458Z,8.73
2022-11-18T03:55:10.801Z,8.43
2022-11-18T04:00:17.203Z,8.18
2022-11-18T04:05:21.600Z,7.27
2022-11-18T04:10:29.575Z,7.30
2022-11-18T04:15:33.328Z,7.63
2022-11-18T04:20:37.959Z,7.63
2022-11-18T04:25:40.758Z,7.88
2022-11-18T04:30:45.758Z,8.30
2022-11-18T04:35:49.922Z,7.72
2022-11-18T04:40:52.680Z,7.32
2022-11-18T04:45:55.397Z,9.80
2022-11-18T04:50:59.728Z,9.48
2022-11-18T04:56:06.433Z,10.93
2022-11-18T05:01:09.487Z,7.55
2022-11-18T05:06:13.744Z,8.65
2022-11-18T05:11:34.053Z,7.95
2022-11-18T05:16:36.789Z,7.07
2022-11-18T05:21:40.954Z,7.95
2022-11-18T05:26:44.053Z,7.47
2022-11-18T05:31:47.141Z,6.95
2022-11-18T05:36:51.459Z,8.75
2022-11-18T05:42:11.850Z,7.75
2022-11-18T05:47:15.046Z,10.73
2022-11-18T05:52:19.897Z,10.98
2022-11-18T05:57:22.806Z,9.85
2022-11-18T06:02:25.715Z,9.15
2022-11-18T06:07:34.376Z,8.52
2022-11-18T06:12:40.596Z,9.55
2022-11-18T06:17:46.711Z,9.77
2022-11-18T06:22:54.668Z,9.40
2022-11-18T06:28:00.260Z,10.88
2022-11-18T06:33:03.012Z,10.13
2022-11-18T06:38:07.278Z,10.80
2022-11-18T06:43:28.946Z,8.85
2022-11-18T06:48:33.177Z,7.95
2022-11-18T06:53:38.197Z,10.15
2022-11-18T06:58:41.304Z,8.80
2022-11-18T07:03:46.235Z,9.50
2022-11-18T07:08:51.780Z,9.50
2022-11-18T07:13:54.890Z,8.90
2022-11-18T07:18:57.619Z,9.27
2022-11-18T07:24:01.752Z,9.07
2022-11-18T07:29:10.633Z,18.88
2022-11-18T07:34:13.867Z,11.45
2022-11-18T07:39:18.489Z,16.42
2022-11-18T07:44:21.425Z,11.90
2022-11-18T07:49:24.123Z,10.75
2022-11-18T07:54:28.504Z,14.40
2022-11-18T07:59:31.611Z,12.18
2022-11-18T08:04:34.509Z,13.80
2022-11-18T08:09:38.876Z,20.85
2022-11-18T08:14:41.705Z,12.40
2022-11-18T08:19:44.631Z,12.20
2022-11-18T08:24:48.900Z,11.77
2022-11-18T08:29:51.831Z,9.35
2022-11-18T08:34:54.729Z,9.05
2022-11-18T08:39:58.796Z,9.82
2022-11-18T08:45:01.802Z,9.43
2022-11-18T08:50:05.689Z,18.75
2022-11-18T08:55:11.013Z,9.23
2022-11-18T09:00:15.423Z,9.07
2022-11-18T09:05:22.007Z,7.40
2022-11-18T09:10:26.542Z,7.15
2022-11-18T09:15:29.712Z,7.40
2022-11-18T09:20:32.420Z,7.35
2022-11-18T09:25:36.532Z,7.00
2022-11-18T09:30:39.484Z,5.57
2022-11-18T09:35:43.457Z,5.22
2022-11-18T09:40:57.643Z,3.88
2022-11-18T09:46:09.946Z,4.00
2022-11-18T09:51:13.105Z,6.22
2022-11-18T09:56:17.916Z,2.92
2022-11-18T10:01:22.058Z,2.80
2022-11-18T10:06:27.506Z,2.75
2022-11-18T10:11:41.736Z,3.00
2022-11-18T10:16:58.027Z,2.42
2022-11-18T10:22:24.002Z,3.28
2022-11-18T10:27:39.242Z,2.20
2022-11-18T10:32:55.381Z,11.52
2022-11-18T10:38:08.217Z,5.63
2022-11-18T10:43:13.842Z,2.90
2022-11-18T10:48:19.306Z,18.30
2022-11-18T10:53:41.910Z,14.32
2022-11-18T10:58:49.726Z,12.40
2022-11-18T11:04:00.233Z,13.15
2022-11-18T11:09:07.031Z,4.80
2022-11-18T11:14:23.226Z,12.27
2022-11-18T11:19:32.273Z,3.47
2022-11-18T11:24:35.062Z,2.20
2022-11-18T11:30:04.522Z,2.63
2022-11-18T11:35:16.158Z,2.03
2022-11-18T11:40:29.297Z,2.10
2022-11-18T11:45:44.648Z,2.25
2022-11-18T11:51:03.595Z,5.05
2022-11-18T11:56:26.856Z,3.17
2022-11-18T12:01:38.416Z,3.33
2022-11-18T12:06:42.731Z,2.58
2022-11-18T12:11:53.059Z,2.13
2022-11-18T12:17:06.406Z,1.60
2022-11-18T12:22:09.357Z,1.80
2022-11-18T12:27:36.118Z,2.03
2022-11-18T12:32:43.337Z,1.50
2022-11-18T12:38:01.531Z,2.92
2022-11-18T12:43:23.625Z,2.78
2022-11-18T12:48:39.704Z,1.98
2022-11-18T12:53:44.146Z,2.80
2022-11-18T12:58:50.133Z,1.60
2022-11-18T13:04:06.788Z,1.83
2022-11-18T13:09:17.404Z,1.77
2022-11-18T13:14:42.330Z,1.85
2022-11-18T13:19:57.167Z,1.90
2022-11-18T13:25:00.115Z,1.60
2022-11-18T13:30:06.176Z,1.50
2022-11-18T13:35:16.553Z,1.98
2022-11-18T13:40:21.477Z,1.92
2022-11-18T13:45:28.012Z,1.08
2022-11-18T13:50:36.745Z,2.00
2022-11-18T13:55:47.149Z,1.50
2022-11-18T14:00:57.433Z,1.65
2022-11-18T14:06:02.469Z,2.00
2022-11-18T14:11:07.170Z,2.28
2022-11-18T14:16:32.292Z,1.90
2022-11-18T14:21:38.916Z,2.00
2022-11-18T14:26:41.782Z,1.97
2022-11-18T14:31:45.051Z,2.05
2022-11-18T14:36:51.167Z,2.35
2022-11-18T14:41:54.650Z,1.70
2022-11-18T14:47:00.014Z,2.15
2022-11-18T14:52:04.768Z,2.00
2022-11-18T14:57:08.164Z,2.72
2022-11-18T15:02:15.054Z,11.60
2022-11-18T15:07:23.677Z,12.10
2022-11-18T15:12:26.896Z,11.40
2022-11-18T15:17:29.878Z,12.38
2022-11-18T15:22:34.993Z,9.13
2022-11-18T15:27:38.580Z,4.38
2022-11-18T15:32:41.394Z,4.65
2022-11-18T15:37:45.459Z,7.05
2022-11-18T15:42:52.001Z,7.72
2022-11-18T15:47:55.225Z,7.90
2022-11-18T15:52:59.362Z,11.23
2022-11-18T15:58:02.217Z,7.25
2022-11-18T16:03:04.976Z,6.20
2022-11-18T16:08:09.098Z,12.25
2022-11-18T16:13:11.851Z,14.05
2022-11-18T16:18:15.969Z,17.73
2022-11-18T16:23:20.032Z,21.95
2022-11-18T16:28:22.891Z,26.85
2022-11-18T16:33:25.741Z,23.38
2022-11-18T16:38:29.908Z,11.10
2022-11-18T16:43:32.757Z,6.85
2022-11-18T16:48:35.570Z,7.15
2022-11-18T16:53:39.731Z,7.55
2022-11-18T16:58:42.479Z,9.43
2022-11-18T17:03:45.300Z,3.90
2022-11-18T17:08:50.054Z,3.67
2022-11-18T17:13:57.973Z,5.00
2022-11-18T17:19:03.787Z,6.85
2022-11-18T17:24:13.633Z,9.32
2022-11-18T17:29:16.963Z,11.03
2022-11-18T17:34:20.281Z,14.75
2022-11-18T17:39:24.766Z,16.88
2022-11-18T17:44:28.325Z,14.73
2022-11-18T17:49:31.263Z,14.73
2022-11-18T17:54:35.529Z,12.57
2022-11-18T17:59:39.066Z,13.85
2022-11-18T18:04:41.899Z,14.77
2022-11-18T18:09:46.074Z,20.23
2022-11-18T18:14:48.838Z,23.15
2022-11-18T18:19:51.601Z,20.98
2022-11-18T18:24:55.717Z,19.60
2022-11-18T18:29:58.598Z,17.70
2022-11-18T18:35:01.542Z,7.38
2022-11-18T18:40:06.628Z,9.25
2022-11-18T18:45:28.780Z,8.18
2022-11-18T18:50:33.008Z,5.93
2022-11-18T18:55:40.568Z,8.95
2022-11-18T19:00:47.519Z,9.88
2022-11-18T19:11:29.324Z,9.73
2022-11-18T19:16:32.217Z,9.80
2022-11-18T19:21:35.463Z,13.25
2022-11-18T19:26:39.799Z,11.30
2022-11-18T19:31:42.738Z,10.48
2022-11-18T19:36:45.513Z,9.40
2022-11-18T19:41:49.698Z,9.23
2022-11-18T19:46:52.500Z,8.40
2022-11-18T19:51:55.256Z,10.93
2022-11-18T19:56:59.824Z,11.20
2022-11-18T20:02:02.540Z,9.40
2022-11-18T20:07:05.668Z,3.17
2022-11-18T20:12:10.018Z,12.73
2022-11-18T20:17:13.369Z,22.77
2022-11-18T20:22:16.178Z,6.43
2022-11-18T20:27:21.109Z,6.93
2022-11-18T20:32:23.934Z,7.72
2022-11-18T20:37:28.247Z,5.63
2022-11-18T20:42:52.780Z,6.30
2022-11-18T20:47:55.874Z,7.13
2022-11-18T20:52:58.813Z,6.63
2022-11-18T20:58:03.040Z,6.75
2022-11-18T21:03:05.935Z,6.60
2022-11-18T21:08:09.747Z,5.93
2022-11-18T21:13:31.738Z,5.75
2022-11-18T21:18:34.480Z,8.30
2022-11-18T21:23:37.310Z,10.73
2022-11-18T21:28:42.206Z,8.43
2022-11-18T21:33:44.997Z,8.10
2022-11-18T21:38:47.840Z,6.72
2022-11-18T21:44:07.953Z,10.52
2022-11-18T21:49:10.852Z,9.30
2022-11-18T21:54:15.721Z,6.75
2022-11-18T21:59:20.677Z,10.55
2022-11-18T22:04:49.934Z,6.80
2022-11-18T22:09:55.118Z,6.05
2022-11-18T22:14:59.305Z,8.38
2022-11-18T22:20:02.486Z,11.55
2022-11-18T22:25:06.691Z,12.13
2022-11-18T22:30:13.570Z,11.73
2022-11-18T22:35:16.433Z,12.30
2022-11-18T22:40:19.290Z,11.43
2022-11-18T22:45:23.456Z,9.18
2022-11-18T22:50:26.397Z,11.20
2022-11-18T22:55:29.182Z,5.45
2022-11-18T23:00:33.588Z,5.50
2022-11-18T23:05:37.046Z,5.65
2022-11-18T23:10:39.764Z,4.93
2022-11-18T23:15:43.832Z,5.20
2022-11-18T23:20:46.557Z,5.82
2022-11-18T23:25:49.288Z,6.53
2022-11-18T23:30:53.456Z,7.43
2022-11-18T23:35:56.208Z,7.82
2022-11-18T23:41:00.739Z,7.30
2022-11-18T23:46:05.669Z,6.57
2022-11-18T23:51:10.204Z,5.85
2022-11-18T23:56:15.228Z,4.38
